createdAt,value
2018-11-07T00:01:05.258Z,99.91
2018-11-07T00:06:00.774Z,98.90
2018-11-07T00:10:57.138Z,98.32
2018-11-07T00:15:52.618Z,98.82
2018-11-07T00:20:58.213Z,97.06
2018-11-07T00:25:53.877Z,98.86
2018-11-07T00:30:56.068Z,99.50
2018-11-07T00:41:34.459Z,99.47
2018-11-07T00:46:32.951Z,97.81
2018-11-07T00:51:29.457Z,97.31
2018-11-07T00:56:27.139Z,95.38
2018-11-07T01:01:23.169Z,97.03
2018-11-07T01:06:18.821Z,96.79
2018-11-07T01:11:14.207Z,98.13
2018-11-07T01:16:10.526Z,99.27
2018-11-07T01:21:06.830Z,100.00
2018-11-07T01:26:02.054Z,97.70
2018-11-07T01:30:57.468Z,99.10
2018-11-07T01:35:52.841Z,97.61
2018-11-07T01:40:48.412Z,97.16
2018-11-07T01:45:43.962Z,99.06
2018-11-07T01:50:39.282Z,99.69
2018-11-07T01:55:34.714Z,99.48
2018-11-07T02:00:30.200Z,98.49
2018-11-07T02:05:25.645Z,99.32
2018-11-07T02:10:21.122Z,98.47
2018-11-07T02:15:19.509Z,99.81
2018-11-07T02:20:15.007Z,99.10
2018-11-07T02:25:10.515Z,97.39
2018-11-07T02:30:08.236Z,98.01
2018-11-07T02:35:03.501Z,96.39
2018-11-07T02:39:59.373Z,99.07
2018-11-07T02:44:54.763Z,98.77
2018-11-07T02:49:50.039Z,99.26
2018-11-07T02:54:45.333Z,100.00
2018-11-07T02:59:43.851Z,100.00
2018-11-07T03:04:39.065Z,100.00
2018-11-07T03:09:34.415Z,100.00
2018-11-07T03:14:29.764Z,100.00
2018-11-07T03:19:25.040Z,100.00
2018-11-07T03:24:20.222Z,100.00
2018-11-07T03:29:15.581Z,100.00
2018-11-07T03:34:10.894Z,100.00
2018-11-07T03:39:09.507Z,100.00
2018-11-07T03:44:05.912Z,100.00
2018-11-07T03:49:01.167Z,100.00
2018-11-07T03:53:56.504Z,100.00
2018-11-07T03:58:58.389Z,100.00
2018-11-07T04:03:53.692Z,100.00
2018-11-07T04:08:49.043Z,100.00
2018-11-07T04:13:44.471Z,100.00
2018-11-07T04:18:40.026Z,100.00
2018-11-07T04:23:35.301Z,100.00
2018-11-07T04:28:31.383Z,100.00
2018-11-07T04:33:27.904Z,100.00
2018-11-07T04:38:23.475Z,100.00
2018-11-07T04:43:18.600Z,100.00
2018-11-07T04:48:14.293Z,100.00
2018-11-07T04:53:09.675Z,100.00
2018-11-07T04:58:06.140Z,100.00
2018-11-07T05:03:01.395Z,100.00
2018-11-07T05:07:57.296Z,100.00
2018-11-07T05:12:52.712Z,100.00
2018-11-07T05:17:47.941Z,100.00
2018-11-07T05:22:43.069Z,100.00
2018-11-07T05:27:38.378Z,100.00
2018-11-07T05:32:33.979Z,100.00
2018-11-07T05:37:29.566Z,100.00
2018-11-07T05:42:24.962Z,100.00
2018-11-07T05:47:20.309Z,100.00
2018-11-07T05:52:15.801Z,100.00
2018-11-07T05:57:11.393Z,100.00
2018-11-07T06:02:06.856Z,100.00
2018-11-07T06:07:02.977Z,100.00
2018-11-07T06:11:58.494Z,100.00
2018-11-07T06:16:53.828Z,100.00
2018-11-07T06:21:49.288Z,100.00
2018-11-07T06:26:48.042Z,100.00
2018-11-07T06:31:44.117Z,100.00
2018-11-07T06:36:39.824Z,100.00
2018-11-07T06:41:34.932Z,100.00
2018-11-07T06:46:30.235Z,100.00
2018-11-07T06:51:25.627Z,100.00
2018-11-07T06:56:20.857Z,100.00
2018-11-07T07:01:16.097Z,100.00
2018-11-07T07:06:11.303Z,100.00
2018-11-07T07:11:06.703Z,100.00
2018-11-07T07:16:01.943Z,100.00
2018-11-07T07:20:57.262Z,100.00
2018-11-07T07:25:52.460Z,100.00
2018-11-07T07:30:47.497Z,100.00
2018-11-07T07:35:43.476Z,100.00
2018-11-07T07:40:38.980Z,100.00
2018-11-07T07:45:34.131Z,100.00
2018-11-07T07:50:30.688Z,100.00
2018-11-07T07:55:26.230Z,100.00
2018-11-07T08:00:22.112Z,100.00
2018-11-07T08:05:17.695Z,100.00
2018-11-07T08:10:15.529Z,100.00
2018-11-07T08:15:11.754Z,100.00
2018-11-07T08:20:09.066Z,100.00
2018-11-07T08:25:04.523Z,100.00
2018-11-07T08:29:59.891Z,100.00
2018-11-07T08:34:55.348Z,100.00
2018-11-07T08:39:50.553Z,100.00
2018-11-07T08:44:45.900Z,100.00
2018-11-07T08:49:41.679Z,100.00
2018-11-07T08:54:37.031Z,100.00
2018-11-07T08:59:32.486Z,100.00
2018-11-07T09:04:28.000Z,100.00
2018-11-07T09:09:27.031Z,100.00
2018-11-07T09:14:23.985Z,100.00
2018-11-07T09:19:22.870Z,100.00
2018-11-07T09:24:18.389Z,100.00
2018-11-07T09:29:13.560Z,100.00
2018-11-07T09:34:09.360Z,100.00
2018-11-07T09:39:13.440Z,99.62
2018-11-07T09:44:54.357Z,98.92
2018-11-07T09:49:50.286Z,99.88
2018-11-07T09:54:45.346Z,97.50
2018-11-07T09:59:40.661Z,97.17
2018-11-07T10:04:35.801Z,97.50
2018-11-07T10:09:31.215Z,96.17
2018-11-07T10:14:27.225Z,95.46
2018-11-07T10:19:23.474Z,95.65
2018-11-07T10:24:18.832Z,94.39
2018-11-07T10:29:14.194Z,93.68
2018-11-07T10:34:10.522Z,93.01
2018-11-07T10:39:08.559Z,93.40
2018-11-07T10:44:03.704Z,94.17
2018-11-07T10:48:59.020Z,93.47
2018-11-07T10:53:54.230Z,92.07
2018-11-07T10:58:49.290Z,88.81
2018-11-07T11:03:44.630Z,89.62
2018-11-07T11:08:39.809Z,91.15
2018-11-07T11:13:37.106Z,87.94
2018-11-07T11:18:33.274Z,88.33
2018-11-07T11:23:28.865Z,89.05
2018-11-07T11:28:24.563Z,86.87
2018-11-07T11:33:19.921Z,86.55
2018-11-07T11:38:15.993Z,87.48
2018-11-07T11:43:11.454Z,88.67
2018-11-07T11:48:06.992Z,86.89
2018-11-07T11:53:02.136Z,86.66
2018-11-07T11:57:57.323Z,85.55
2018-11-07T12:02:52.463Z,83.53
2018-11-07T12:07:47.624Z,83.99
2018-11-07T12:12:44.248Z,85.46
2018-11-07T12:17:39.418Z,85.25
2018-11-07T12:22:34.604Z,83.82
2018-11-07T12:27:29.780Z,85.71
2018-11-07T12:32:24.859Z,84.07
2018-11-07T12:37:19.924Z,84.40
2018-11-07T12:42:15.112Z,85.52
2018-11-07T12:47:10.217Z,84.83
2018-11-07T12:52:05.704Z,84.30
2018-11-07T12:57:01.132Z,87.14
2018-11-07T13:01:57.603Z,87.38
2018-11-07T13:06:53.106Z,87.79
2018-11-07T13:11:48.313Z,87.40
2018-11-07T13:16:43.775Z,87.19
2018-11-07T13:21:38.899Z,87.01
2018-11-07T13:26:34.191Z,85.74
2018-11-07T13:31:30.170Z,84.76
2018-11-07T13:36:25.588Z,86.98
2018-11-07T13:41:20.729Z,88.42
2018-11-07T13:46:16.645Z,88.92
2018-11-07T13:51:11.733Z,87.50
2018-11-07T13:56:07.208Z,85.43
2018-11-07T14:01:02.580Z,84.78
2018-11-07T14:05:57.933Z,85.97
2018-11-07T14:10:56.617Z,85.62
2018-11-07T14:15:55.143Z,86.44
2018-11-07T14:20:50.606Z,85.18
2018-11-07T14:25:45.950Z,85.46
2018-11-07T14:30:41.831Z,85.66
2018-11-07T14:35:37.431Z,84.06
2018-11-07T14:40:33.407Z,84.12
2018-11-07T14:45:31.050Z,86.25
2018-11-07T14:50:26.766Z,87.79
2018-11-07T14:55:22.292Z,87.58
2018-11-07T15:00:18.541Z,88.18
2018-11-07T15:05:14.843Z,87.76
2018-11-07T15:10:11.594Z,88.98
2018-11-07T15:15:09.113Z,88.35
2018-11-07T15:20:04.425Z,90.94
2018-11-07T15:25:00.098Z,92.30
2018-11-07T15:29:55.453Z,93.81
2018-11-07T15:34:52.475Z,95.06
2018-11-07T15:39:47.972Z,95.15
2018-11-07T15:44:44.926Z,95.26
2018-11-07T15:49:47.266Z,95.50
2018-11-07T15:54:43.466Z,96.47
2018-11-07T15:59:38.985Z,92.40
2018-11-07T16:04:34.454Z,93.32
2018-11-07T16:09:29.825Z,92.64
2018-11-07T16:14:24.941Z,93.67
2018-11-07T16:19:20.197Z,94.78
2018-11-07T16:24:15.354Z,93.86
2018-11-07T16:29:15.439Z,95.72
2018-11-07T16:34:10.870Z,92.61
2018-11-07T16:39:11.654Z,95.53
2018-11-07T16:50:02.100Z,91.88
2018-11-07T16:54:57.544Z,88.83
2018-11-07T16:59:53.159Z,90.33
2018-11-07T17:04:48.884Z,88.52
2018-11-07T17:09:44.174Z,90.12
2018-11-07T17:14:39.516Z,89.73
2018-11-07T17:19:34.815Z,90.97
2018-11-07T17:24:30.603Z,92.71
2018-11-07T17:29:26.013Z,93.74
2018-11-07T17:34:21.347Z,93.28
2018-11-07T17:39:16.926Z,95.56
2018-11-07T17:44:12.899Z,95.77
2018-11-07T17:49:08.755Z,96.69
2018-11-07T17:54:05.401Z,95.98
2018-11-07T17:59:00.971Z,96.16
2018-11-07T18:04:04.323Z,97.49
2018-11-07T18:09:00.045Z,96.57
2018-11-07T18:13:55.357Z,98.05
2018-11-07T18:18:51.040Z,97.66
2018-11-07T18:23:46.407Z,97.36
2018-11-07T18:28:42.414Z,97.84
2018-11-07T18:33:37.875Z,99.58
2018-11-07T18:38:33.269Z,98.60
2018-11-07T18:43:29.688Z,98.46
2018-11-07T18:48:25.048Z,98.93
2018-11-07T18:53:21.902Z,98.53
2018-11-07T18:58:17.672Z,98.93
2018-11-07T19:03:14.217Z,98.78
2018-11-07T19:08:12.233Z,99.31
2018-11-07T19:13:07.740Z,99.19
2018-11-07T19:18:03.074Z,99.67
2018-11-07T19:22:58.283Z,100.00
2018-11-07T19:27:53.536Z,100.00
2018-11-07T19:32:49.528Z,100.00
2018-11-07T19:37:45.364Z,100.00
2018-11-07T19:42:41.045Z,99.91
2018-11-07T19:47:36.966Z,100.00
2018-11-07T19:52:33.191Z,100.00
2018-11-07T19:57:28.583Z,100.00
2018-11-07T20:02:24.816Z,99.25
2018-11-07T20:07:20.960Z,100.00
2018-11-07T20:12:16.853Z,100.00
2018-11-07T20:17:14.691Z,100.00
2018-11-07T20:22:11.476Z,100.00
2018-11-07T20:27:07.259Z,100.00
2018-11-07T20:32:02.880Z,100.00
2018-11-07T20:36:58.486Z,100.00
2018-11-07T20:41:53.794Z,100.00
2018-11-07T20:46:49.223Z,100.00
2018-11-07T20:51:44.497Z,100.00
2018-11-07T20:56:56.032Z,100.00
2018-11-07T21:01:53.461Z,100.00
2018-11-07T21:07:04.008Z,100.00
2018-11-07T21:12:00.746Z,100.00
2018-11-07T21:16:58.511Z,100.00
2018-11-07T21:27:02.517Z,100.00
2018-11-07T21:32:14.718Z,100.00
2018-11-07T21:43:03.107Z,100.00
2018-11-07T21:47:58.786Z,100.00
2018-11-07T21:52:53.955Z,100.00
2018-11-07T21:57:49.544Z,100.00
2018-11-07T22:02:46.692Z,100.00
2018-11-07T22:07:41.859Z,100.00
2018-11-07T22:12:57.773Z,100.00
2018-11-07T22:17:53.881Z,100.00
2018-11-07T22:22:48.859Z,100.00
2018-11-07T22:27:43.847Z,100.00
2018-11-07T22:32:39.513Z,100.00
2018-11-07T22:37:35.403Z,100.00
2018-11-07T22:47:57.161Z,100.00
2018-11-07T22:52:53.342Z,100.00
2018-11-07T22:57:49.976Z,100.00
2018-11-07T23:30:07.315Z,100.00
2018-11-07T23:35:09.071Z,100.00
2018-11-07T23:40:14.907Z,100.00
2018-11-07T23:52:45.816Z,100.00
